Terminal Aerodrome Forecast
Issued by NWS Mobile, AL

Home | Current Version | Previous Version | Text Only | Print | Product List | Glossary On
Versions: 1 2 3 4 5 6 7 8 9 10 11 12 13 14 15 16 17 18 19 20 21 22 23 24 25 26 27 28 29 30 31 32 33 34 35 36 37 38 39 40 41 42 43 44 45 46 47
000
FTUS44 KMOB 191732
TAFMOB
TAF
KMOB 191732Z 1918/2018 18010G21KT P6SM VCSH BKN013 BKN024 OVC030
      TEMPO 1922/2002 VRB35KT 1SM TSRA BKN011CB
     FM200200 18010KT 4SM BR VCSH BKN010
     FM200600 17006KT 1/2SM FG OVC004
     FM201500 22008KT 3SM BR OVC010=

USA.gov is the U.S. government's official web portal to all federal, state and local government web resources and services.